Wilson Lista — 8PRW — position and weather

sailwx.info

Track history (hours):
 
Tides and Currents Weather Stations Pressure Air Temp Water Temp Dewpoint Dewpoint Depression Visibility Wind Speed Wind Dir Waves Ship Positions

Wilson Lista

Last reported at 2015-Sep-01 01:22 UTC. Time now 2015-Sep-02 14:52 UTC.
Position N 55°21' E 019°39'.

Length 88 m; draft 3.2 m.

Type: Cargo ship. MMSI: 314188000.

Date/timePositionNaut miles runAvg speedWind from/ knotsBaromVisibWave heightAir tempDewpointWater temp
2015-Sep-01 01:22N 55°21' E 019°39'1011.0
2015-Sep-01 00:26N 55°12' E 019°30'1010.9
2015-Aug-31 23:33N 55°04' E 019°21'1010.5
2015-Aug-31 22:33N 54°55' E 019°12'1110.5
2015-Aug-31 21:33N 54°46' E 019°03'1110.9
2015-Aug-31 20:33N 54°36' E 018°54'10 9.5
2015-Aug-31 19:33N 54°32' E 018°40'4 3.6
2015-Aug-31 18:33N 54°32' E 018°33'0 0.0
2015-Aug-31 17:33N 54°32' E 018°33'0 0.0
2015-Aug-31 16:32N 54°32' E 018°33'0 0.0
2015-Aug-31 15:32N 54°32' E 018°33'0 0.0
2015-Aug-31 14:32N 54°32' E 018°33'0 0.0
2015-Aug-31 13:31N 54°32' E 018°33'0 0.0
2015-Aug-31 12:31N 54°32' E 018°33'0 0.0
2015-Aug-31 11:33N 54°32' E 018°33'0 0.0
2015-Aug-31 10:33N 54°32' E 018°33'0 0.0
2015-Aug-31 09:33N 54°32' E 018°33'0 0.0
2015-Aug-31 08:32N 54°32' E 018°33'0 0.0
2015-Aug-31 07:32N 54°32' E 018°33'0 0.0
2015-Aug-31 06:31N 54°32' E 018°33'0 0.0
2015-Aug-31 05:28N 54°32' E 018°33'0 0.0
2015-Aug-31 04:33N 54°32' E 018°33'0 0.0
2015-Aug-31 03:33N 54°32' E 018°33'0 0.0
2015-Aug-31 02:33N 54°32' E 018°33'0 0.0
2015-Aug-31 01:32N 54°32' E 018°33'0 0.0
2015-Aug-31 00:32N 54°32' E 018°33'0 0.0
2015-Aug-30 23:31N 54°32' E 018°33'0 0.0
2015-Aug-30 22:31N 54°32' E 018°33'0 0.0
2015-Aug-30 21:33N 54°32' E 018°33'0 0.0
2015-Aug-30 20:33N 54°32' E 018°33'0 0.0
2015-Aug-30 19:32N 54°32' E 018°33'0 0.0
2015-Aug-30 18:33N 54°32' E 018°33'7 6.5
2015-Aug-30 17:33N 54°32' E 018°45'9 9.5
2015-Aug-30 16:33N 54°39' E 018°55'9 8.7
2015-Aug-30 15:33N 54°45' E 018°44'1010.1
2015-Aug-30 14:33N 54°50' E 018°28'10 9.9
2015-Aug-30 13:33N 54°52' E 018°12'1010.2
2015-Aug-30 12:33N 54°52' E 017°54'10 9.9
2015-Aug-30 11:32N 54°52' E 017°36'70 9.9
2015-Aug-30 04:26N 54°52' E 015°34'910.3
2015-Aug-30 03:33N 54°53' E 015°19'1010.3
2015-Aug-30 02:33N 54°54' E 015°01'1010.1
2015-Aug-30 01:33N 54°55' E 014°43'1010.1
2015-Aug-30 00:33N 54°56' E 014°26'1010.3
2015-Aug-29 23:33N 54°58' E 014°08'10 9.9
2015-Aug-29 22:33N 55°01' E 013°52'1010.0
2015-Aug-29 21:33N 55°05' E 013°36'1010.4
2015-Aug-29 20:33N 55°09' E 013°19'1010.3
2015-Aug-29 19:33N 55°13' E 013°02'1010.3
2015-Aug-29 18:33N 55°17' E 012°46'8 7.6
2015-Aug-29 17:34N 55°23' E 012°40'10 9.5
2015-Aug-29 16:33N 55°33' E 012°42'1110.7
2015-Aug-29 15:33N 55°43' E 012°41'1010.2
2015-Aug-29 14:33N 55°53' E 012°39'1010.4
2015-Aug-29 13:34N 56°04' E 012°37'1111.2
2015-Aug-29 12:33N 56°12' E 012°23'3110.4
2015-Aug-29 09:33N 56°39' E 011°57'1110.4
2015-Aug-29 08:31N 56°49' E 011°49'1010.2
2015-Aug-29 07:33N 56°58' E 011°40'2110.3
2015-Aug-29 05:33N 57°16' E 011°23'1010.2
2015-Aug-29 04:33N 57°25' E 011°13'1010.4
2015-Aug-29 03:33N 57°33' E 011°02'16110.1
2015-Aug-28 11:33N 58°14' E 006°09'1110.0
2015-Aug-28 10:30N 58°22' E 005°54'9 9.4
2015-Aug-28 09:33N 58°28' E 005°42'27 9.0
2015-Aug-28 06:33N 58°50' E 005°14'8 8.1
2015-Aug-28 05:33N 58°57' E 005°06'9 8.6
2015-Aug-28 04:34N 59°05' E 004°58'9 8.8
2015-Aug-28 03:33N 59°13' E 004°50'  
2015-Aug-25 23:28N 63°40' E 009°16'9 9.4
2015-Aug-25 22:33N 63°45' E 009°31'5 0.2
2015-Aug-24 20:33N 63°49' E 009°38'10 9.9
2015-Aug-24 19:33N 63°40' E 009°29'  
Track history (hours):
 
Tides and Currents Weather Stations Pressure Air Temp Water Temp Dewpoint Dewpoint Depression Visibility Wind Speed Wind Dir Waves Ship Positions

Wilson Lista

Last reported at 2015-Sep-01 01:22 UTC. Time now 2015-Sep-02 14:52 UTC.
Position N 55°21' E 019°39'.

Length 88 m; draft 3.2 m.

Type: Cargo ship. MMSI: 314188000.

Date/timePositionNaut miles runAvg speedWind from/ knotsBaromVisibWave heightAir tempDewpointWater temp
2015-Sep-01 01:22N 55°21' E 019°39'1011.0
2015-Sep-01 00:26N 55°12' E 019°30'1010.9
2015-Aug-31 23:33N 55°04' E 019°21'1010.5
2015-Aug-31 22:33N 54°55' E 019°12'1110.5
2015-Aug-31 21:33N 54°46' E 019°03'1110.9
2015-Aug-31 20:33N 54°36' E 018°54'10 9.5
2015-Aug-31 19:33N 54°32' E 018°40'4 3.6
2015-Aug-31 18:33N 54°32' E 018°33'0 0.0
2015-Aug-31 17:33N 54°32' E 018°33'0 0.0
2015-Aug-31 16:32N 54°32' E 018°33'0 0.0
2015-Aug-31 15:32N 54°32' E 018°33'0 0.0
2015-Aug-31 14:32N 54°32' E 018°33'0 0.0
2015-Aug-31 13:31N 54°32' E 018°33'0 0.0
2015-Aug-31 12:31N 54°32' E 018°33'0 0.0
2015-Aug-31 11:33N 54°32' E 018°33'0 0.0
2015-Aug-31 10:33N 54°32' E 018°33'0 0.0
2015-Aug-31 09:33N 54°32' E 018°33'0 0.0
2015-Aug-31 08:32N 54°32' E 018°33'0 0.0
2015-Aug-31 07:32N 54°32' E 018°33'0 0.0
2015-Aug-31 06:31N 54°32' E 018°33'0 0.0
2015-Aug-31 05:28N 54°32' E 018°33'0 0.0
2015-Aug-31 04:33N 54°32' E 018°33'0 0.0
2015-Aug-31 03:33N 54°32' E 018°33'0 0.0
2015-Aug-31 02:33N 54°32' E 018°33'0 0.0
2015-Aug-31 01:32N 54°32' E 018°33'0 0.0
2015-Aug-31 00:32N 54°32' E 018°33'0 0.0
2015-Aug-30 23:31N 54°32' E 018°33'0 0.0
2015-Aug-30 22:31N 54°32' E 018°33'0 0.0
2015-Aug-30 21:33N 54°32' E 018°33'0 0.0
2015-Aug-30 20:33N 54°32' E 018°33'0 0.0
2015-Aug-30 19:32N 54°32' E 018°33'0 0.0
2015-Aug-30 18:33N 54°32' E 018°33'7 6.5
2015-Aug-30 17:33N 54°32' E 018°45'9 9.5
2015-Aug-30 16:33N 54°39' E 018°55'9 8.7
2015-Aug-30 15:33N 54°45' E 018°44'1010.1
2015-Aug-30 14:33N 54°50' E 018°28'10 9.9
2015-Aug-30 13:33N 54°52' E 018°12'1010.2
2015-Aug-30 12:33N 54°52' E 017°54'10 9.9
2015-Aug-30 11:32N 54°52' E 017°36'70 9.9
2015-Aug-30 04:26N 54°52' E 015°34'910.3
2015-Aug-30 03:33N 54°53' E 015°19'1010.3
2015-Aug-30 02:33N 54°54' E 015°01'1010.1
2015-Aug-30 01:33N 54°55' E 014°43'1010.1
2015-Aug-30 00:33N 54°56' E 014°26'1010.3
2015-Aug-29 23:33N 54°58' E 014°08'10 9.9
2015-Aug-29 22:33N 55°01' E 013°52'1010.0
2015-Aug-29 21:33N 55°05' E 013°36'1010.4
2015-Aug-29 20:33N 55°09' E 013°19'1010.3
2015-Aug-29 19:33N 55°13' E 013°02'1010.3
2015-Aug-29 18:33N 55°17' E 012°46'8 7.6
2015-Aug-29 17:34N 55°23' E 012°40'10 9.5
2015-Aug-29 16:33N 55°33' E 012°42'1110.7
2015-Aug-29 15:33N 55°43' E 012°41'1010.2
2015-Aug-29 14:33N 55°53' E 012°39'1010.4
2015-Aug-29 13:34N 56°04' E 012°37'1111.2
2015-Aug-29 12:33N 56°12' E 012°23'3110.4
2015-Aug-29 09:33N 56°39' E 011°57'1110.4
2015-Aug-29 08:31N 56°49' E 011°49'1010.2
2015-Aug-29 07:33N 56°58' E 011°40'2110.3
2015-Aug-29 05:33N 57°16' E 011°23'1010.2
2015-Aug-29 04:33N 57°25' E 011°13'1010.4
2015-Aug-29 03:33N 57°33' E 011°02'16110.1
2015-Aug-28 11:33N 58°14' E 006°09'1110.0
2015-Aug-28 10:30N 58°22' E 005°54'9 9.4
2015-Aug-28 09:33N 58°28' E 005°42'27 9.0
2015-Aug-28 06:33N 58°50' E 005°14'8 8.1
2015-Aug-28 05:33N 58°57' E 005°06'9 8.6
2015-Aug-28 04:34N 59°05' E 004°58'9 8.8
2015-Aug-28 03:33N 59°13' E 004°50'  
2015-Aug-25 23:28N 63°40' E 009°16'9 9.4
2015-Aug-25 22:33N 63°45' E 009°31'5 0.2
2015-Aug-24 20:33N 63°49' E 009°38'10 9.9
2015-Aug-24 19:33N 63°40' E 009°29'  

Dump ship's entire track history